Caribbean Trader — V2MY — position and weather

sailwx.info

Track history (hours):
 
Tides and Currents Weather Stations Pressure Air Temp Water Temp Dewpoint Dewpoint Depression Visibility Wind Speed Wind Dir Waves Ship Positions

Caribbean Trader

Last reported at 2018-May-21 18:52 UTC. Time now 2018-May-25 18:36 UTC.
Position N 10°59' W 074°46'.

Length 100 m; draft 5.2 m.

Type: Ship (hazmat cat A). MMSI: 304010886.

Date/timePositionNaut miles runAvg speedWind from/ knotsBaromVisibWave heightAir tempDewpointWater temp
2018-May-21 18:52N 10°59' W 074°46'  
2018-May-15 14:19N 10°23' W 061°34'0 0.0
2018-May-15 13:58N 10°23' W 061°34'0 0.0
2018-May-15 13:28N 10°23' W 061°34'0 0.0
2018-May-15 12:58N 10°23' W 061°34'0 0.0
2018-May-15 12:28N 10°23' W 061°34'0 0.0
2018-May-15 11:55N 10°23' W 061°34'0 0.0
2018-May-15 11:22N 10°23' W 061°34'0 0.0
2018-May-15 10:58N 10°23' W 061°34'2 3.8
2018-May-15 10:31N 10°24' W 061°34'510.0
2018-May-15 10:00N 10°28' W 061°37'5 9.7
2018-May-15 09:30N 10°32' W 061°41'4 8.9
2018-May-15 09:00N 10°35' W 061°44'5 9.5
2018-May-15 08:31N 10°39' W 061°47'5 9.5
2018-May-15 08:00N 10°43' W 061°49'4 8.4
2018-May-15 07:31N 10°47' W 061°51'6 9.3
2018-May-15 06:53N 10°47' W 061°57'  
Track history (hours):
 
Tides and Currents Weather Stations Pressure Air Temp Water Temp Dewpoint Dewpoint Depression Visibility Wind Speed Wind Dir Waves Ship Positions

Caribbean Trader

Last reported at 2018-May-21 18:52 UTC. Time now 2018-May-25 18:36 UTC.
Position N 10°59' W 074°46'.

Length 100 m; draft 5.2 m.

Type: Ship (hazmat cat A). MMSI: 304010886.

Date/timePositionNaut miles runAvg speedWind from/ knotsBaromVisibWave heightAir tempDewpointWater temp
2018-May-21 18:52N 10°59' W 074°46'  
2018-May-15 14:19N 10°23' W 061°34'0 0.0
2018-May-15 13:58N 10°23' W 061°34'0 0.0
2018-May-15 13:28N 10°23' W 061°34'0 0.0
2018-May-15 12:58N 10°23' W 061°34'0 0.0
2018-May-15 12:28N 10°23' W 061°34'0 0.0
2018-May-15 11:55N 10°23' W 061°34'0 0.0
2018-May-15 11:22N 10°23' W 061°34'0 0.0
2018-May-15 10:58N 10°23' W 061°34'2 3.8
2018-May-15 10:31N 10°24' W 061°34'510.0
2018-May-15 10:00N 10°28' W 061°37'5 9.7
2018-May-15 09:30N 10°32' W 061°41'4 8.9
2018-May-15 09:00N 10°35' W 061°44'5 9.5
2018-May-15 08:31N 10°39' W 061°47'5 9.5
2018-May-15 08:00N 10°43' W 061°49'4 8.4
2018-May-15 07:31N 10°47' W 061°51'6 9.3
2018-May-15 06:53N 10°47' W 061°57'  

Dump ship's entire track history